Time;durP1;ratioP1;P1;durP2;ratioP2;P2;SDS_P1;SDS_P2;PMS_P1;PMS_P2;Temp;Humidity;BMP_temperature;BMP_pressure;BME280_temperature;BME280_humidity;BME280_pressure;Samples;Min_cycle;Max_cycle;Signal;HPM_P1;HPM_P2
2022/08/01 00:02:22;;;;;;;3.03;2.17;;;21.80;68.20;;;;;;5000948;28;20498;-66
2022/08/01 00:04:49;;;;;;;5.17;2.33;;;21.80;67.70;;;;;;5012756;28;20521;-67
2022/08/01 00:07:16;;;;;;;7.63;2.57;;;21.80;68.40;;;;;;5004233;28;20781;-66
2022/08/01 00:09:43;;;;;;;2.93;2.07;;;21.80;67.30;;;;;;4992844;28;20527;-67
2022/08/01 00:12:11;;;;;;;5.10;3.13;;;21.80;67.00;;;;;;4996586;28;20872;-67
2022/08/01 00:14:39;;;;;;;5.50;2.67;;;21.90;66.90;;;;;;5012740;28;20477;-66
2022/08/01 00:17:06;;;;;;;3.57;2.70;;;21.90;66.60;;;;;;5012547;28;20443;-66
2022/08/01 00:19:33;;;;;;;8.90;3.57;;;22.00;66.70;;;;;;5012497;28;20473;-66
2022/08/01 00:22:00;;;;;;;5.13;2.70;;;22.00;66.50;;;;;;5007218;28;20570;-66
2022/08/01 00:24:27;;;;;;;3.90;3.00;;;22.00;66.40;;;;;;4992944;28;20439;-66
2022/08/01 00:26:54;;;;;;;3.30;2.80;;;22.00;66.50;;;;;;4994766;28;20478;-66
2022/08/01 00:29:22;;;;;;;4.07;3.00;;;22.10;66.70;;;;;;5016575;28;20438;-67
2022/08/01 00:31:52;;;;;;;3.87;2.50;;;22.10;67.50;;;;;;5010580;28;20438;-66
2022/08/01 00:34:21;;;;;;;2.87;2.07;;;22.20;67.10;;;;;;5016744;28;20496;-66
2022/08/01 00:36:48;;;;;;;3.70;2.20;;;22.20;69.20;;;;;;5013399;28;20474;-66
2022/08/01 00:39:16;;;;;;;3.80;2.63;;;22.20;70.10;;;;;;5016455;28;20442;-67
2022/08/01 00:41:43;;;;;;;4.10;2.73;;;22.20;70.30;;;;;;5002474;28;20479;-67
2022/08/01 00:44:10;;;;;;;6.63;2.57;;;22.20;70.40;;;;;;4996838;28;20509;-66
2022/08/01 00:46:37;;;;;;;3.30;2.43;;;22.20;71.00;;;;;;5007715;28;20498;-68
2022/08/01 00:49:07;;;;;;;5.73;2.40;;;22.20;71.50;;;;;;5016177;28;20524;-67
2022/08/01 00:51:36;;;;;;;4.00;2.10;;;22.10;72.10;;;;;;5003840;28;20926;-66
2022/08/01 00:54:03;;;;;;;4.00;2.00;;;22.00;72.50;;;;;;4996606;28;20452;-66
2022/08/01 00:56:35;;;;;;;4.70;2.40;;;22.00;72.40;;;;;;5005878;28;20483;-66
2022/08/01 00:59:05;;;;;;;5.50;2.70;;;21.90;70.50;;;;;;5016248;28;20493;-66
2022/08/01 01:01:32;;;;;;;4.20;2.67;;;21.90;70.10;;;;;;5004868;28;20557;-66
2022/08/01 01:03:59;;;;;;;5.40;2.37;;;21.90;69.60;;;;;;4996353;28;20471;-66
2022/08/01 01:06:39;;;;;;;4.80;2.20;;;21.90;68.90;;;;;;5002810;28;20484;-67
2022/08/01 01:09:25;;;;;;;3.30;2.33;;;21.90;68.40;;;;;;5015629;28;20469;-67
2022/08/01 01:12:02;;;;;;;4.00;1.73;;;21.80;68.00;;;;;;5002848;28;20948;-66
2022/08/01 01:14:35;;;;;;;4.23;2.70;;;21.80;67.80;;;;;;4996189;28;21002;-66
2022/08/01 01:17:05;;;;;;;4.73;2.50;;;21.80;67.40;;;;;;5006593;28;20534;-66
2022/08/01 01:19:36;;;;;;;3.97;2.20;;;21.80;67.30;;;;;;5015636;28;20446;-67
2022/08/01 01:22:30;;;;;;;5.40;2.37;;;21.80;67.30;;;;;;5003119;28;20506;-67
2022/08/01 01:25:10;;;;;;;3.30;2.13;;;21.70;66.90;;;;;;4996071;28;20439;-67
2022/08/01 01:27:48;;;;;;;3.90;2.47;;;21.70;67.50;;;;;;5010577;28;20800;-66
2022/08/01 01:30:17;;;;;;;5.33;2.63;;;21.70;68.20;;;;;;5015602;28;20445;-66
2022/08/01 01:32:49;;;;;;;3.73;2.87;;;21.70;68.10;;;;;;4998611;28;20490;-66
2022/08/01 01:35:22;;;;;;;3.60;2.47;;;21.70;69.00;;;;;;4995992;28;20451;-67
2022/08/01 01:37:52;;;;;;;3.73;3.30;;;21.60;69.10;;;;;;4996493;28;20502;-66
2022/08/01 01:40:20;;;;;;;4.70;2.73;;;21.50;69.20;;;;;;4995647;28;20474;-66
2022/08/01 01:42:48;;;;;;;4.23;2.57;;;21.50;69.80;;;;;;5007990;28;20510;-66
2022/08/01 01:45:18;;;;;;;4.13;3.23;;;21.40;70.40;;;;;;5011700;28;20814;-66
2022/08/01 01:47:46;;;;;;;4.90;2.67;;;21.30;70.70;;;;;;5015172;28;20473;-66
2022/08/01 01:50:14;;;;;;;5.63;3.23;;;21.30;71.00;;;;;;5001786;28;20468;-66
2022/08/01 01:52:45;;;;;;;3.53;2.70;;;21.30;71.70;;;;;;4995475;28;20485;-66
2022/08/01 01:55:14;;;;;;;4.17;2.43;;;21.20;71.80;;;;;;5005707;28;20449;-66
2022/08/01 01:57:42;;;;;;;3.90;2.53;;;21.20;71.90;;;;;;5014271;28;20501;-66
2022/08/01 02:00:12;;;;;;;4.33;2.70;;;21.10;72.20;;;;;;5003622;28;20479;-66
2022/08/01 02:02:42;;;;;;;6.50;2.50;;;21.10;72.10;;;;;;4995234;28;20482;-71
2022/08/01 02:05:12;;;;;;;5.00;2.60;;;21.10;72.00;;;;;;5003754;28;20442;-66
2022/08/01 02:07:41;;;;;;;4.00;2.70;;;21.10;72.00;;;;;;5014803;28;20446;-66
2022/08/01 02:10:11;;;;;;;3.23;2.50;;;21.00;72.00;;;;;;5010108;28;20536;-66
2022/08/01 02:12:40;;;;;;;3.27;2.60;;;21.00;71.90;;;;;;5014748;28;20472;-66
2022/08/01 02:15:09;;;;;;;4.00;3.20;;;21.00;73.30;;;;;;5005109;28;20522;-67
2022/08/01 02:17:42;;;;;;;5.40;3.70;;;21.00;72.90;;;;;;4995024;28;20443;-66
2022/08/01 02:20:11;;;;;;;7.57;3.50;;;20.90;73.00;;;;;;5001524;28;20528;-66
2022/08/01 02:22:42;;;;;;;5.87;3.10;;;20.90;72.90;;;;;;5005258;28;20486;-66
2022/08/01 02:25:24;;;;;;;5.13;3.00;;;21.00;73.30;;;;;;4994981;28;20489;-66
2022/08/01 02:28:00;;;;;;;3.40;3.10;;;20.90;72.90;;;;;;5001903;28;20437;-67
2022/08/01 02:30:30;;;;;;;5.63;3.47;;;20.90;73.00;;;;;;5009844;28;20442;-66
2022/08/01 02:33:02;;;;;;;5.83;3.07;;;21.00;73.60;;;;;;4995052;28;20497;-66
2022/08/01 02:35:34;;;;;;;5.27;2.60;;;21.00;73.30;;;;;;4992264;28;20465;-68
2022/08/01 02:38:04;;;;;;;4.50;4.00;;;21.00;72.50;;;;;;4997180;28;20802;-69
2022/08/01 02:40:34;;;;;;;6.70;2.70;;;21.00;72.20;;;;;;5004559;28;20913;-66
2022/08/01 02:43:04;;;;;;;4.57;2.77;;;20.90;72.00;;;;;;5012704;28;20527;-66
2022/08/01 02:45:32;;;;;;;4.10;2.83;;;20.90;72.30;;;;;;5013910;28;20506;-66
2022/08/01 02:48:09;;;;;;;3.73;2.63;;;20.90;72.80;;;;;;5013074;28;20432;-67
2022/08/01 02:50:38;;;;;;;3.83;3.10;;;20.90;73.30;;;;;;4994028;28;20493;-66
2022/08/01 02:53:09;;;;;;;3.83;2.77;;;20.80;72.90;;;;;;4993728;28;20987;-72
2022/08/01 02:55:39;;;;;;;14.03;3.87;;;20.80;73.50;;;;;;5014287;28;20445;-66
2022/08/01 02:58:13;;;;;;;4.23;2.67;;;20.80;73.70;;;;;;5013854;28;20454;-71
2022/08/01 03:00:42;;;;;;;4.33;2.70;;;20.80;73.30;;;;;;4994765;28;20485;-66
2022/08/01 03:03:11;;;;;;;6.40;3.13;;;20.80;73.30;;;;;;4994293;28;20521;-66
2022/08/01 03:05:40;;;;;;;4.07;2.90;;;20.80;72.70;;;;;;5011797;28;20454;-67
2022/08/01 03:08:09;;;;;;;4.00;3.20;;;20.70;72.70;;;;;;5013852;28;20443;-66
2022/08/01 03:10:39;;;;;;;4.83;3.00;;;20.70;72.70;;;;;;4994405;28;20478;-67
2022/08/01 03:13:09;;;;;;;7.20;2.73;;;20.60;72.60;;;;;;4994412;28;20494;-66
2022/08/01 03:15:40;;;;;;;4.97;3.10;;;20.60;72.60;;;;;;5011142;28;20472;-66
2022/08/01 03:18:11;;;;;;;5.17;3.07;;;20.60;72.60;;;;;;5011736;28;20470;-66
2022/08/01 03:20:38;;;;;;;5.00;2.40;;;20.60;72.90;;;;;;4994481;28;20941;-65
2022/08/01 03:23:08;;;;;;;3.83;2.70;;;20.60;72.80;;;;;;4991889;28;20567;-66
2022/08/01 03:25:38;;;;;;;3.47;3.17;;;20.60;73.40;;;;;;4993777;28;20454;-66
2022/08/01 03:28:07;;;;;;;6.03;2.80;;;20.60;73.40;;;;;;4994519;28;20445;-66
2022/08/01 03:30:37;;;;;;;4.77;3.87;;;20.60;74.30;;;;;;5013556;28;20473;-67
2022/08/01 03:33:04;;;;;;;3.70;2.77;;;20.50;74.20;;;;;;5010886;28;20474;-67
2022/08/01 03:35:37;;;;;;;4.20;2.80;;;20.50;75.00;;;;;;4993847;28;20522;-68
2022/08/01 03:38:06;;;;;;;4.03;2.53;;;20.40;75.40;;;;;;4993385;28;20441;-67
2022/08/01 03:40:38;;;;;;;3.90;2.73;;;20.40;76.40;;;;;;5012348;28;20939;-67
2022/08/01 03:43:08;;;;;;;3.87;2.73;;;20.40;76.60;;;;;;5012155;28;20572;-75
2022/08/01 03:45:38;;;;;;;7.07;2.80;;;20.30;76.70;;;;;;4993508;28;20557;-67
2022/08/01 03:48:09;;;;;;;3.80;2.50;;;20.30;77.00;;;;;;4994011;28;20505;-74
2022/08/01 03:50:42;;;;;;;3.63;3.10;;;20.30;77.50;;;;;;4993546;28;20477;-67
2022/08/01 03:53:11;;;;;;;4.33;3.07;;;20.20;77.70;;;;;;4993573;28;20442;-67
2022/08/01 03:55:39;;;;;;;3.73;3.03;;;20.00;78.20;;;;;;5012400;28;20842;-67
2022/08/01 03:58:08;;;;;;;8.17;3.30;;;20.00;78.60;;;;;;5013207;28;20536;-68
2022/08/01 04:00:38;;;;;;;6.70;2.73;;;20.00;78.70;;;;;;5008129;28;20539;-68
2022/08/01 04:03:05;;;;;;;3.63;3.00;;;19.90;78.90;;;;;;5012716;28;20473;-67
2022/08/01 04:05:32;;;;;;;4.80;2.93;;;19.90;79.20;;;;;;4994745;28;20526;-67
2022/08/01 04:08:02;;;;;;;4.67;3.23;;;19.90;79.80;;;;;;4993806;28;20482;-67
2022/08/01 04:10:29;;;;;;;7.77;3.30;;;19.90;79.60;;;;;;5008616;28;20440;-67
2022/08/01 04:12:56;;;;;;;5.80;2.97;;;19.90;79.80;;;;;;5013591;28;20536;-68
2022/08/01 04:15:23;;;;;;;3.90;3.13;;;19.90;80.60;;;;;;4997017;28;20542;-67
2022/08/01 04:17:50;;;;;;;5.63;2.70;;;19.90;80.30;;;;;;4993722;28;20875;-68
2022/08/01 04:20:17;;;;;;;7.43;4.00;;;19.90;80.50;;;;;;5006070;28;20470;-67
2022/08/01 04:22:44;;;;;;;10.37;5.20;;;19.90;80.70;;;;;;5012970;28;20515;-69
2022/08/01 04:25:20;;;;;;;10.40;4.63;;;19.90;80.60;;;;;;5000081;28;20900;-67
2022/08/01 04:27:50;;;;;;;7.10;4.60;;;19.90;80.00;;;;;;4993854;28;20868;-67
2022/08/01 04:30:19;;;;;;;9.80;4.97;;;19.90;80.00;;;;;;5004615;28;20527;-68
2022/08/01 04:32:47;;;;;;;13.30;5.60;;;20.00;80.30;;;;;;5013098;28;20436;-73
2022/08/01 04:35:17;;;;;;;8.80;4.57;;;20.00;80.50;;;;;;5000913;28;21015;-67
2022/08/01 04:37:48;;;;;;;6.50;4.10;;;20.10;81.60;;;;;;4993522;28;20450;-67
2022/08/01 04:40:18;;;;;;;6.60;3.80;;;20.10;81.00;;;;;;5002390;28;20536;-67
2022/08/01 04:42:45;;;;;;;4.80;3.63;;;20.10;80.10;;;;;;5013254;28;20512;-67
2022/08/01 04:45:12;;;;;;;7.03;3.47;;;20.20;79.50;;;;;;5008220;28;21000;-67
2022/08/01 04:47:42;;;;;;;4.53;3.17;;;20.30;79.70;;;;;;5012469;28;20520;-67
2022/08/01 04:50:10;;;;;;;6.80;3.27;;;20.30;79.40;;;;;;5001257;28;20451;-67
2022/08/01 04:52:38;;;;;;;4.50;2.67;;;20.40;79.00;;;;;;4992894;28;20449;-67
2022/08/01 04:55:07;;;;;;;3.30;2.07;;;20.50;78.30;;;;;;4999949;28;20446;-67
2022/08/01 04:57:38;;;;;;;9.07;2.73;;;20.60;78.20;;;;;;5000964;28;20454;-73
2022/08/01 05:00:07;;;;;;;4.77;3.00;;;20.60;76.70;;;;;;4991316;28;20434;-70
2022/08/01 05:02:33;;;;;;;4.73;2.57;;;20.70;77.10;;;;;;5005775;28;20482;-68
2022/08/01 05:05:01;;;;;;;4.10;2.53;;;20.80;76.20;;;;;;5002580;28;20533;-76
2022/08/01 05:07:29;;;;;;;6.53;3.00;;;20.90;76.60;;;;;;4953122;28;20614;-71
2022/08/01 05:09:56;;;;;;;4.17;2.70;;;21.00;77.10;;;;;;4974855;28;20473;-77
2022/08/01 05:12:23;;;;;;;5.37;2.57;;;21.10;77.70;;;;;;5002937;28;20530;-68
2022/08/01 05:14:51;;;;;;;5.93;2.93;;;21.10;75.90;;;;;;5000559;28;20520;-72
2022/08/01 05:17:18;;;;;;;4.00;2.50;;;21.20;75.50;;;;;;5005088;28;20450;-69
2022/08/01 05:19:45;;;;;;;5.80;3.00;;;21.30;74.80;;;;;;5013738;28;20460;-67
2022/08/01 05:22:12;;;;;;;4.13;2.77;;;21.30;75.00;;;;;;5012876;28;20430;-67
2022/08/01 05:24:42;;;;;;;4.17;2.17;;;21.40;74.90;;;;;;5010925;28;20537;-67
2022/08/01 05:27:09;;;;;;;7.67;2.60;;;21.50;75.50;;;;;;5013161;28;20477;-68
2022/08/01 05:29:36;;;;;;;3.97;2.80;;;21.60;75.10;;;;;;5013500;28;20489;-67
2022/08/01 05:32:05;;;;;;;3.50;2.70;;;21.80;74.60;;;;;;5009918;28;20446;-68
2022/08/01 05:34:32;;;;;;;5.77;3.07;;;21.90;74.80;;;;;;5014601;28;20492;-68
2022/08/01 05:36:59;;;;;;;3.40;2.23;;;22.00;73.90;;;;;;5012559;28;20442;-67
2022/08/01 05:39:26;;;;;;;4.43;3.13;;;22.10;74.20;;;;;;5014091;28;20526;-68
2022/08/01 05:41:53;;;;;;;7.53;2.93;;;22.30;73.50;;;;;;5006230;28;20534;-68
2022/08/01 05:44:20;;;;;;;4.33;2.27;;;22.30;73.50;;;;;;5014350;28;20593;-67
2022/08/01 05:46:47;;;;;;;4.20;2.47;;;22.50;73.80;;;;;;5009900;28;20892;-68
2022/08/01 05:49:15;;;;;;;4.13;2.70;;;22.70;73.80;;;;;;5013771;28;20534;-69
2022/08/01 05:51:42;;;;;;;4.10;2.20;;;22.80;73.40;;;;;;5010866;28;20535;-68
2022/08/01 05:54:09;;;;;;;6.23;2.60;;;23.00;73.10;;;;;;5014052;28;20466;-68
2022/08/01 05:56:36;;;;;;;4.77;2.47;;;23.10;73.50;;;;;;5007324;28;20536;-67
2022/08/01 05:59:03;;;;;;;4.30;2.90;;;23.20;71.00;;;;;;5013110;28;20466;-69
2022/08/01 06:01:30;;;;;;;2.80;2.03;;;23.20;72.00;;;;;;5006094;28;20467;-67
2022/08/01 06:03:57;;;;;;;4.23;2.87;;;23.30;73.80;;;;;;4996517;28;20561;-68
2022/08/01 06:06:38;;;;;;;6.90;2.20;;;23.50;74.30;;;;;;5013348;28;20833;-68
2022/08/01 06:09:04;;;;;;;3.33;2.83;;;23.50;73.50;;;;;;5005743;28;20435;-67
2022/08/01 06:11:32;;;;;;;4.60;2.70;;;23.50;70.30;;;;;;5011527;28;20521;-68
2022/08/01 06:13:59;;;;;;;4.43;2.70;;;23.40;69.70;;;;;;5013054;28;20989;-68
2022/08/01 06:16:26;;;;;;;4.70;2.67;;;23.40;68.90;;;;;;5011636;28;20977;-68
2022/08/01 06:18:53;;;;;;;4.07;2.90;;;23.30;69.60;;;;;;5010502;28;20529;-68
2022/08/01 06:21:20;;;;;;;4.27;2.47;;;23.20;68.80;;;;;;5012913;28;20922;-67
2022/08/01 06:23:48;;;;;;;3.70;2.93;;;23.10;69.60;;;;;;5011000;28;20571;-69
2022/08/01 06:26:18;;;;;;;3.30;2.67;;;23.10;71.60;;;;;;5007336;28;20534;-70
2022/08/01 06:28:45;;;;;;;4.63;2.53;;;23.10;71.50;;;;;;5011347;28;20501;-68
2022/08/01 06:31:14;;;;;;;5.33;2.50;;;23.20;72.10;;;;;;5008678;28;20526;-67
2022/08/01 06:33:41;;;;;;;5.03;2.40;;;23.20;70.00;;;;;;5010269;28;20451;-67
2022/08/01 06:36:08;;;;;;;4.67;3.23;;;23.20;70.80;;;;;;5012621;28;20529;-67
2022/08/01 06:38:36;;;;;;;12.53;6.63;;;23.30;71.20;;;;;;5009412;28;20765;-68
2022/08/01 06:41:04;;;;;;;5.57;3.80;;;23.40;72.00;;;;;;5011835;28;20447;-67
2022/08/01 06:43:31;;;;;;;4.17;3.23;;;23.50;72.00;;;;;;5008675;28;20490;-68
2022/08/01 06:45:58;;;;;;;6.87;3.03;;;23.60;71.20;;;;;;5010982;28;20466;-68
2022/08/01 06:48:26;;;;;;;4.63;2.70;;;23.70;71.00;;;;;;5013517;28;20439;-66
2022/08/01 06:51:07;;;;;;;5.03;3.00;;;23.80;70.90;;;;;;5014476;28;20525;-67
2022/08/01 06:53:34;;;;;;;3.63;2.20;;;23.90;71.70;;;;;;5000658;28;20435;-66
2022/08/01 06:56:05;;;;;;;6.67;2.90;;;23.90;70.30;;;;;;5007214;28;20436;-68
2022/08/01 06:58:34;;;;;;;3.00;2.20;;;24.00;70.00;;;;;;4994739;28;20479;-66
2022/08/01 07:01:05;;;;;;;4.33;2.53;;;24.10;69.00;;;;;;4994603;28;20522;-66
2022/08/01 07:03:32;;;;;;;3.30;2.30;;;24.10;68.10;;;;;;4994511;28;20483;-67
2022/08/01 07:05:59;;;;;;;4.27;2.77;;;24.30;68.70;;;;;;4994787;28;20792;-67
2022/08/01 07:08:26;;;;;;;3.87;2.90;;;24.40;69.00;;;;;;4994626;28;20541;-67
2022/08/01 07:10:53;;;;;;;6.57;2.50;;;24.50;68.20;;;;;;4994496;28;20527;-67
2022/08/01 07:13:24;;;;;;;2.97;2.40;;;24.50;67.10;;;;;;4994671;28;20472;-66
2022/08/01 07:15:52;;;;;;;6.67;2.87;;;24.60;67.60;;;;;;5005777;28;20493;-66
2022/08/01 07:18:22;;;;;;;5.00;3.10;;;24.80;67.90;;;;;;5013550;28;20531;-67
2022/08/01 07:20:49;;;;;;;3.40;2.73;;;24.90;68.10;;;;;;5013189;28;20523;-67
2022/08/01 07:23:16;;;;;;;4.03;2.63;;;25.10;68.60;;;;;;5014061;28;20570;-66
2022/08/01 07:25:50;;;;;;;3.40;3.00;;;25.20;67.10;;;;;;5013454;28;20974;-66
2022/08/01 07:28:24;;;;;;;4.10;2.87;;;25.30;68.10;;;;;;5011429;28;20833;-67
2022/08/01 07:30:51;;;;;;;4.37;3.03;;;25.40;66.70;;;;;;5013033;28;20430;-67
2022/08/01 07:33:18;;;;;;;6.60;2.80;;;25.50;66.30;;;;;;5013301;28;20497;-67
2022/08/01 07:35:45;;;;;;;3.13;2.60;;;25.60;65.90;;;;;;5013446;28;20688;-68
2022/08/01 07:38:13;;;;;;;4.23;2.80;;;25.70;65.20;;;;;;5013396;28;20443;-67
2022/08/01 07:40:41;;;;;;;4.07;2.90;;;25.70;64.30;;;;;;5013298;28;20438;-67
2022/08/01 07:43:10;;;;;;;5.00;3.17;;;25.80;64.80;;;;;;5013159;28;20439;-67
2022/08/01 07:45:38;;;;;;;4.50;3.30;;;25.90;64.90;;;;;;5004180;28;20467;-67
2022/08/01 07:48:10;;;;;;;5.57;3.30;;;26.00;64.50;;;;;;4992846;28;20493;-67
2022/08/01 07:50:39;;;;;;;3.40;2.80;;;26.10;64.60;;;;;;4993259;28;20439;-67
2022/08/01 07:53:06;;;;;;;8.00;3.03;;;26.20;64.50;;;;;;5008511;28;20480;-68
2022/08/01 07:55:36;;;;;;;4.70;3.80;;;26.30;63.90;;;;;;5013033;28;20490;-67
2022/08/01 07:58:06;;;;;;;3.60;2.60;;;26.40;63.00;;;;;;5013088;28;20534;-67
2022/08/01 08:00:39;;;;;;;4.07;2.53;;;26.50;62.20;;;;;;5013209;28;20442;-67
2022/08/01 08:03:11;;;;;;;3.10;2.57;;;26.50;61.50;;;;;;5013106;28;20482;-67
2022/08/01 08:05:40;;;;;;;5.70;2.57;;;26.60;61.20;;;;;;5013026;28;20450;-67
2022/08/01 08:08:11;;;;;;;4.53;2.50;;;26.70;59.90;;;;;;5013422;28;20474;-67
2022/08/01 08:10:38;;;;;;;6.03;2.40;;;26.80;59.70;;;;;;5012884;28;20447;-67
2022/08/01 08:13:05;;;;;;;5.70;2.90;;;26.80;59.10;;;;;;5002133;28;20472;-67
2022/08/01 08:15:33;;;;;;;4.23;3.03;;;26.90;58.80;;;;;;4993096;28;21000;-67
2022/08/01 08:18:01;;;;;;;2.93;2.23;;;27.00;58.00;;;;;;4993006;28;20487;-67
2022/08/01 08:20:29;;;;;;;5.37;3.10;;;27.00;58.00;;;;;;4993565;28;20449;-67
2022/08/01 08:22:57;;;;;;;5.43;2.93;;;27.10;58.80;;;;;;4992934;28;20797;-67
2022/08/01 08:25:28;;;;;;;3.77;2.80;;;27.30;58.80;;;;;;4993352;28;20487;-67
2022/08/01 08:28:01;;;;;;;3.43;2.57;;;27.40;58.30;;;;;;4993727;28;20790;-67
2022/08/01 08:30:28;;;;;;;5.30;3.07;;;27.50;57.50;;;;;;4993495;28;20938;-67
2022/08/01 08:32:57;;;;;;;4.20;3.00;;;27.60;56.70;;;;;;4993109;28;20445;-67
2022/08/01 08:35:26;;;;;;;4.00;2.87;;;27.70;56.20;;;;;;4993299;28;20451;-67
2022/08/01 08:37:53;;;;;;;4.63;2.37;;;27.80;56.50;;;;;;4993336;28;20483;-68
2022/08/01 08:40:27;;;;;;;3.80;2.47;;;27.90;56.00;;;;;;4993395;28;20841;-67
2022/08/01 08:43:01;;;;;;;3.80;2.30;;;28.00;56.00;;;;;;5008511;28;20486;-67
2022/08/01 08:45:30;;;;;;;4.10;2.30;;;28.00;55.70;;;;;;5011904;28;20547;-67
2022/08/01 08:47:58;;;;;;;3.10;2.30;;;28.20;55.80;;;;;;5012977;28;20952;-67
2022/08/01 08:50:27;;;;;;;3.70;2.90;;;28.20;55.80;;;;;;5016647;28;20872;-68
2022/08/01 08:52:56;;;;;;;2.93;2.47;;;28.30;55.00;;;;;;5016116;28;20533;-68
2022/08/01 08:55:25;;;;;;;3.17;2.37;;;28.40;53.60;;;;;;5015070;28;20430;-68
2022/08/01 08:57:52;;;;;;;4.20;2.40;;;28.50;55.10;;;;;;5016869;28;20524;-67
2022/08/01 09:00:24;;;;;;;5.13;3.00;;;28.60;54.90;;;;;;5016754;28;20451;-67
2022/08/01 09:02:55;;;;;;;4.30;2.90;;;28.60;54.00;;;;;;5016731;28;20442;-67
2022/08/01 09:05:26;;;;;;;4.20;2.33;;;28.70;54.00;;;;;;5016262;28;20478;-67
2022/08/01 09:07:54;;;;;;;3.87;2.57;;;28.80;53.30;;;;;;5016374;28;20482;-67
2022/08/01 09:10:29;;;;;;;3.97;2.90;;;28.90;53.70;;;;;;5016187;28;20482;-67
2022/08/01 09:13:10;;;;;;;4.30;2.50;;;29.00;52.70;;;;;;5015616;28;20485;-67
2022/08/01 09:15:49;;;;;;;6.13;2.53;;;29.20;52.00;;;;;;5015640;28;20838;-67
2022/08/01 09:18:35;;;;;;;3.20;2.30;;;29.40;52.10;;;;;;5016139;28;20533;-67
2022/08/01 09:21:16;;;;;;;4.40;2.33;;;29.70;51.50;;;;;;5015748;28;20443;-69
2022/08/01 09:23:47;;;;;;;3.73;2.33;;;30.00;50.90;;;;;;5015530;28;20967;-67
2022/08/01 09:26:18;;;;;;;3.47;2.23;;;30.30;50.50;;;;;;5015591;28;20442;-67
2022/08/01 09:28:49;;;;;;;3.20;2.43;;;30.50;48.10;;;;;;5016140;28;20485;-67
2022/08/01 09:31:20;;;;;;;4.50;2.47;;;30.70;48.40;;;;;;5015614;28;20481;-68
2022/08/01 09:33:52;;;;;;;3.73;2.23;;;30.80;48.80;;;;;;5016226;28;20438;-67
2022/08/01 09:36:21;;;;;;;3.60;2.60;;;30.90;48.50;;;;;;5016013;28;20449;-66
2022/08/01 09:38:48;;;;;;;3.27;1.90;;;30.90;47.10;;;;;;5016125;28;20439;-68
2022/08/01 09:41:15;;;;;;;2.73;1.90;;;30.90;46.60;;;;;;5016465;28;20504;-66
2022/08/01 09:43:49;;;;;;;2.87;1.30;;;30.90;46.80;;;;;;5016111;28;20483;-67
2022/08/01 09:46:16;;;;;;;3.13;2.10;;;30.90;47.00;;;;;;5015817;28;20514;-67
2022/08/01 09:48:57;;;;;;;4.50;2.40;;;31.00;47.90;;;;;;5015914;28;20534;-66
2022/08/01 09:51:37;;;;;;;3.10;1.97;;;31.00;48.20;;;;;;5016124;28;20474;-66
2022/08/01 09:54:08;;;;;;;2.60;1.60;;;31.10;45.80;;;;;;5015909;28;20980;-67
2022/08/01 09:56:46;;;;;;;2.27;1.70;;;31.20;45.50;;;;;;5015848;28;20528;-66
2022/08/01 09:59:14;;;;;;;2.60;1.80;;;31.30;45.70;;;;;;5015152;28;20513;-66
2022/08/01 10:01:47;;;;;;;2.53;1.43;;;31.30;44.90;;;;;;5015346;28;20445;-67
2022/08/01 10:04:16;;;;;;;3.33;1.83;;;31.20;44.70;;;;;;5011970;28;20517;-66
2022/08/01 10:06:49;;;;;;;2.83;1.63;;;31.30;45.10;;;;;;5014125;28;20524;-66
2022/08/01 10:09:27;;;;;;;3.20;2.20;;;31.30;44.40;;;;;;5014393;28;20485;-66
2022/08/01 10:11:56;;;;;;;5.23;1.70;;;31.30;44.40;;;;;;5014334;28;20450;-66
2022/08/01 10:14:25;;;;;;;3.00;2.00;;;31.30;45.30;;;;;;5014057;28;21108;-66
2022/08/01 10:16:57;;;;;;;3.53;1.80;;;31.40;44.90;;;;;;5014342;28;20533;-66
2022/08/01 10:19:26;;;;;;;3.90;1.70;;;31.50;44.30;;;;;;5014143;28;20438;-66
2022/08/01 10:21:56;;;;;;;3.43;1.57;;;31.50;42.40;;;;;;5014140;28;20450;-67
2022/08/01 10:24:23;;;;;;;2.60;1.80;;;31.40;43.40;;;;;;5015339;28;20486;-67
2022/08/01 10:26:54;;;;;;;5.70;1.70;;;31.40;42.30;;;;;;5013694;28;20522;-71
2022/08/01 10:29:22;;;;;;;2.80;1.67;;;31.40;42.90;;;;;;5024499;28;20496;-66
2022/08/01 10:31:50;;;;;;;2.30;1.30;;;31.40;44.00;;;;;;5022700;28;20486;-67
2022/08/01 10:34:19;;;;;;;6.83;1.50;;;31.40;43.60;;;;;;5024975;28;20480;-66
2022/08/01 10:36:47;;;;;;;3.40;1.90;;;31.40;43.30;;;;;;5021834;28;20823;-67
2022/08/01 10:39:16;;;;;;;4.17;1.90;;;31.30;45.00;;;;;;5022105;28;20541;-66
2022/08/01 10:41:43;;;;;;;6.40;3.00;;;31.30;45.60;;;;;;5019362;28;20446;-67
2022/08/01 10:44:11;;;;;;;3.37;2.33;;;31.30;43.10;;;;;;5018536;28;20565;-66
2022/08/01 10:46:41;;;;;;;3.40;2.27;;;31.30;43.90;;;;;;5022075;28;20984;-66
2022/08/01 10:49:13;;;;;;;3.43;2.00;;;31.40;42.90;;;;;;5022390;28;20447;-66
2022/08/01 10:51:42;;;;;;;4.33;2.40;;;31.40;42.70;;;;;;5021564;28;20925;-66
2022/08/01 10:54:10;;;;;;;3.90;2.60;;;31.50;43.40;;;;;;5022331;28;20529;-66
2022/08/01 10:56:46;;;;;;;3.20;2.43;;;31.60;43.90;;;;;;5018846;28;20849;-66
2022/08/01 10:59:20;;;;;;;4.73;2.03;;;31.70;43.30;;;;;;5018656;28;20438;-66
2022/08/01 11:01:57;;;;;;;4.50;2.10;;;31.70;42.80;;;;;;5019210;28;20477;-66
2022/08/01 11:04:34;;;;;;;2.97;1.90;;;31.80;42.30;;;;;;5019493;28;21043;-67
2022/08/01 11:07:06;;;;;;;3.43;2.23;;;31.80;43.80;;;;;;5022717;28;20492;-67
2022/08/01 11:09:40;;;;;;;3.30;2.00;;;31.90;44.30;;;;;;5018003;28;20525;-66
2022/08/01 11:12:15;;;;;;;3.07;2.20;;;32.10;43.20;;;;;;5021911;28;20441;-74
2022/08/01 11:15:27;;;;;;;4.93;2.47;;;32.20;43.10;;;;;;5015109;28;20921;-66
2022/08/01 11:17:55;;;;;;;6.87;1.73;;;32.30;42.00;;;;;;5019856;28;20502;-66
2022/08/01 11:20:23;;;;;;;3.27;1.80;;;32.30;41.90;;;;;;5018333;28;20537;-66
2022/08/01 11:23:20;;;;;;;3.30;1.60;;;32.30;39.50;;;;;;5017982;28;20445;-66
2022/08/01 11:26:16;;;;;;;4.93;2.40;;;32.30;39.40;;;;;;5013419;28;20573;-67
2022/08/01 11:29:03;;;;;;;3.17;1.60;;;32.30;39.30;;;;;;5023174;28;20462;-66
2022/08/01 11:31:31;;;;;;;3.23;1.93;;;32.20;39.40;;;;;;5019126;28;20493;-66
2022/08/01 11:33:59;;;;;;;3.40;2.33;;;32.20;39.60;;;;;;5019870;28;20875;-66
2022/08/01 11:36:27;;;;;;;3.67;1.93;;;32.20;39.20;;;;;;5015990;28;20438;-68
2022/08/01 11:39:18;;;;;;;3.17;1.53;;;32.20;38.70;;;;;;5022783;28;20881;-66
2022/08/01 11:41:47;;;;;;;4.03;3.03;;;32.10;39.10;;;;;;5020444;28;20540;-71
2022/08/01 11:44:27;;;;;;;2.70;1.47;;;32.10;39.00;;;;;;5020602;28;20485;-66
2022/08/01 11:47:03;;;;;;;6.93;1.33;;;32.10;39.70;;;;;;5020854;28;20477;-69
2022/08/01 11:49:59;;;;;;;3.10;1.50;;;32.20;38.40;;;;;;5020212;28;20446;-66
2022/08/01 11:52:28;;;;;;;4.00;1.93;;;32.20;40.30;;;;;;5014979;28;20473;-66
2022/08/01 11:54:57;;;;;;;3.30;1.47;;;32.40;38.20;;;;;;5012109;28;20442;-66
2022/08/01 11:57:26;;;;;;;2.63;1.30;;;32.50;36.90;;;;;;5018090;28;20538;-66
2022/08/01 11:59:57;;;;;;;2.60;1.60;;;32.60;38.80;;;;;;5016847;28;20442;-66
2022/08/01 12:02:26;;;;;;;2.33;1.17;;;32.60;38.20;;;;;;5018027;28;20456;-67
2022/08/01 12:04:56;;;;;;;3.10;1.30;;;32.70;37.60;;;;;;5013430;28;20482;-67
2022/08/01 12:07:24;;;;;;;2.40;1.40;;;32.70;36.60;;;;;;5013053;28;20426;-67
2022/08/01 12:10:05;;;;;;;2.20;1.20;;;32.70;34.70;;;;;;5023264;28;20499;-67
2022/08/01 12:12:36;;;;;;;2.37;1.27;;;32.90;34.90;;;;;;5020802;28;20473;-66
2022/08/01 12:15:08;;;;;;;2.20;1.30;;;32.90;35.80;;;;;;5020311;28;20439;-66
2022/08/01 12:17:36;;;;;;;3.63;1.50;;;33.00;37.90;;;;;;5022993;28;20492;-66
2022/08/01 12:20:06;;;;;;;5.27;1.80;;;33.00;36.90;;;;;;5020980;28;20844;-67
2022/08/01 12:22:33;;;;;;;2.07;1.17;;;33.00;37.40;;;;;;5022008;28;20987;-66
2022/08/01 12:25:07;;;;;;;2.70;1.60;;;33.10;36.40;;;;;;5023098;28;20481;-66
2022/08/01 12:27:34;;;;;;;2.53;1.67;;;33.10;35.70;;;;;;5017976;28;20437;-66
2022/08/01 12:30:02;;;;;;;3.37;2.23;;;33.10;35.90;;;;;;5014729;28;20864;-66
2022/08/01 12:32:33;;;;;;;3.10;1.50;;;33.20;36.70;;;;;;5018299;28;20446;-66
2022/08/01 12:35:03;;;;;;;3.77;2.20;;;33.20;36.50;;;;;;5022929;28;20449;-66
2022/08/01 12:37:31;;;;;;;2.67;1.40;;;33.20;36.30;;;;;;5020257;28;20442;-66
2022/08/01 12:39:58;;;;;;;3.10;1.50;;;33.10;35.40;;;;;;5023182;28;20442;-67
2022/08/01 12:42:26;;;;;;;2.30;1.50;;;33.10;37.00;;;;;;5020624;28;20442;-66
2022/08/01 12:44:54;;;;;;;2.90;1.20;;;33.10;36.00;;;;;;5019615;28;20536;-67
2022/08/01 12:47:22;;;;;;;4.30;1.43;;;33.00;35.20;;;;;;5021110;28;20845;-68
2022/08/01 12:49:51;;;;;;;4.13;2.50;;;33.00;32.50;;;;;;5021989;28;20469;-67
2022/08/01 12:52:22;;;;;;;2.90;2.03;;;32.80;32.90;;;;;;5021445;28;20478;-67
2022/08/01 12:55:02;;;;;;;5.50;1.73;;;32.70;35.50;;;;;;5021512;28;20453;-67
2022/08/01 12:57:34;;;;;;;4.30;1.40;;;32.70;35.70;;;;;;5022975;28;20457;-66
2022/08/01 13:00:18;;;;;;;3.73;1.27;;;32.70;36.10;;;;;;5020297;28;20446;-67
2022/08/01 13:02:46;;;;;;;2.10;1.10;;;32.60;35.20;;;;;;5016515;28;20442;-66